Time;durP1;ratioP1;P1;durP2;ratioP2;P2;SDS_P1;SDS_P2;PMS_P1;PMS_P2;Temp;Humidity;BMP_temperature;BMP_pressure;BME280_temperature;BME280_humidity;BME280_pressure;Samples;Min_cycle;Max_cycle;Signal;HPM_P1;HPM_P2
2022/02/13 00:01:38;;;;;;;10.63;9.10;;;-0.70;99.90;;;;;;6246589;23;20527;-80
2022/02/13 00:04:04;;;;;;;13.30;9.73;;;-0.90;99.90;;;;;;6246123;23;20234;-80
2022/02/13 00:06:30;;;;;;;13.07;10.00;;;-1.00;99.90;;;;;;6246603;23;20173;-80
2022/02/13 00:08:56;;;;;;;13.63;9.63;;;-1.10;99.90;;;;;;6245495;23;20153;-79
2022/02/13 00:11:22;;;;;;;16.47;10.13;;;-1.10;99.90;;;;;;6246023;23;20170;-80
2022/02/13 00:13:48;;;;;;;14.00;10.17;;;-1.10;99.90;;;;;;6220794;23;20149;-80
2022/02/13 00:16:15;;;;;;;14.37;10.37;;;-1.20;99.90;;;;;;6247535;22;20239;-80
2022/02/13 00:18:40;;;;;;;14.50;10.00;;;-1.20;99.90;;;;;;6247880;23;20175;-80
2022/02/13 00:21:06;;;;;;;12.70;9.27;;;-1.30;99.90;;;;;;6221412;23;20157;-80
2022/02/13 00:23:31;;;;;;;21.00;14.13;;;-1.30;99.90;;;;;;6247664;23;20586;-80
2022/02/13 00:25:57;;;;;;;14.60;10.97;;;-1.20;99.90;;;;;;6247449;23;20179;-80
2022/02/13 00:28:23;;;;;;;12.47;10.23;;;-1.20;99.90;;;;;;6220327;23;20161;-80
2022/02/13 00:30:48;;;;;;;12.97;9.60;;;-1.30;99.90;;;;;;6220717;23;20176;-80
2022/02/13 00:33:18;;;;;;;12.30;9.97;;;-1.30;99.90;;;;;;6220940;23;20232;-80
2022/02/13 00:35:45;;;;;;;16.03;10.27;;;-1.20;99.90;;;;;;6221172;23;20173;-80
2022/02/13 00:38:11;;;;;;;10.93;9.83;;;-1.20;99.90;;;;;;6247941;23;20145;-81
2022/02/13 00:40:37;;;;;;;12.60;10.00;;;-1.20;99.90;;;;;;6247885;23;20180;-80
2022/02/13 00:43:03;;;;;;;10.83;9.73;;;-1.20;99.90;;;;;;6248271;23;20152;-81
2022/02/13 00:45:29;;;;;;;11.87;9.53;;;-1.10;99.90;;;;;;6222101;23;20177;-81
2022/02/13 00:47:54;;;;;;;14.53;9.77;;;-1.00;99.90;;;;;;6250318;23;20220;-80
2022/02/13 00:50:20;;;;;;;13.67;9.87;;;-1.00;99.90;;;;;;6222402;23;20183;-81
2022/02/13 00:52:46;;;;;;;14.87;10.67;;;-1.00;99.90;;;;;;6249475;23;20149;-81
2022/02/13 00:55:11;;;;;;;15.27;9.70;;;-0.90;99.90;;;;;;6248097;23;20167;-81
2022/02/13 00:57:37;;;;;;;13.97;10.30;;;-0.90;99.90;;;;;;6248330;23;20145;-81
2022/02/13 01:00:06;;;;;;;14.67;10.83;;;-0.90;99.90;;;;;;6222348;23;20157;-81
2022/02/13 01:02:33;;;;;;;12.77;9.70;;;-0.80;99.90;;;;;;6249042;23;20230;-80
2022/02/13 01:04:59;;;;;;;14.90;10.20;;;-0.80;99.90;;;;;;6222899;23;20153;-81
2022/02/13 01:07:24;;;;;;;12.80;9.83;;;-0.90;99.90;;;;;;6223325;23;20184;-81
2022/02/13 01:09:51;;;;;;;16.30;10.17;;;-0.80;99.90;;;;;;6222930;23;20206;-81
2022/02/13 01:12:17;;;;;;;11.77;9.93;;;-0.80;99.90;;;;;;6223196;23;20168;-80
2022/02/13 01:14:43;;;;;;;13.77;10.23;;;-0.80;99.90;;;;;;6249360;23;20153;-81
2022/02/13 01:17:08;;;;;;;13.57;9.63;;;-0.80;99.90;;;;;;6249763;22;20187;-81
2022/02/13 01:19:34;;;;;;;12.40;9.63;;;-0.80;99.90;;;;;;6249875;23;20157;-81
2022/02/13 01:22:04;;;;;;;12.43;9.57;;;-0.90;99.90;;;;;;6222299;23;20203;-81
2022/02/13 01:24:33;;;;;;;13.40;9.20;;;-0.90;99.90;;;;;;6249914;23;20138;-81
2022/02/13 01:27:07;;;;;;;14.43;9.27;;;-1.00;99.90;;;;;;6250340;23;20280;-79
2022/02/13 01:29:34;;;;;;;12.73;9.40;;;-1.20;99.90;;;;;;6250058;23;20581;-80
2022/02/13 01:31:59;;;;;;;11.07;9.53;;;-1.20;99.90;;;;;;6249494;23;20169;-80
2022/02/13 01:34:27;;;;;;;10.17;9.17;;;-1.20;99.90;;;;;;6223394;23;20149;-80
2022/02/13 01:36:53;;;;;;;12.20;9.23;;;-1.20;99.90;;;;;;6249148;23;20248;-80
2022/02/13 01:39:19;;;;;;;11.57;9.53;;;-1.30;99.90;;;;;;6249714;23;20141;-80
2022/02/13 01:41:49;;;;;;;12.23;9.60;;;-1.40;99.90;;;;;;6249820;23;20153;-80
2022/02/13 01:44:26;;;;;;;10.70;9.30;;;-1.30;99.90;;;;;;6222882;23;20149;-80
2022/02/13 01:46:53;;;;;;;12.33;9.10;;;-1.30;99.90;;;;;;6249227;23;20244;-80
2022/02/13 01:49:19;;;;;;;12.23;9.10;;;-1.40;99.90;;;;;;6249543;23;20149;-80
2022/02/13 01:51:44;;;;;;;10.63;8.97;;;-1.30;99.90;;;;;;6221715;23;20251;-79
2022/02/13 01:54:11;;;;;;;13.10;9.87;;;-1.30;99.90;;;;;;6249141;23;20165;-80
2022/02/13 01:56:39;;;;;;;12.10;9.77;;;-1.20;99.90;;;;;;6221242;23;20729;-82
2022/02/13 01:59:06;;;;;;;10.43;8.53;;;-1.20;99.90;;;;;;6222207;23;20157;-79
2022/02/13 02:01:32;;;;;;;12.43;9.20;;;-1.20;99.90;;;;;;6222184;23;20157;-82
2022/02/13 02:03:58;;;;;;;14.33;9.10;;;-1.30;99.90;;;;;;6248988;23;20155;-82
2022/02/13 02:06:23;;;;;;;10.60;8.70;;;-1.30;99.90;;;;;;6222197;23;20247;-82
2022/02/13 02:08:49;;;;;;;14.43;9.07;;;-1.30;99.90;;;;;;6222411;23;20180;-81
2022/02/13 02:11:14;;;;;;;12.57;8.53;;;-1.40;99.90;;;;;;6249099;23;20169;-79
2022/02/13 02:13:40;;;;;;;13.20;9.63;;;-1.50;99.90;;;;;;6249651;23;20566;-80
2022/02/13 02:16:08;;;;;;;13.57;9.10;;;-1.60;99.90;;;;;;6249238;22;20184;-82
2022/02/13 02:18:34;;;;;;;10.93;9.20;;;-1.50;99.90;;;;;;6248832;23;20224;-81
2022/02/13 02:21:03;;;;;;;10.57;8.50;;;-1.50;99.90;;;;;;6248965;23;20147;-81
2022/02/13 02:23:28;;;;;;;9.87;8.87;;;-1.40;99.90;;;;;;6249033;23;20232;-80
2022/02/13 02:25:54;;;;;;;13.20;9.13;;;-1.30;99.90;;;;;;6221934;23;20600;-82
2022/02/13 02:28:20;;;;;;;13.23;9.23;;;-1.30;99.90;;;;;;6249249;23;20145;-79
2022/02/13 02:30:46;;;;;;;12.27;8.73;;;-1.30;99.90;;;;;;6249647;23;20173;-82
2022/02/13 02:33:12;;;;;;;12.00;8.83;;;-1.30;99.90;;;;;;6249761;23;20145;-81
2022/02/13 02:35:39;;;;;;;10.90;8.83;;;-1.20;99.90;;;;;;6249120;23;20172;-82
2022/02/13 02:38:04;;;;;;;11.10;8.43;;;-1.20;99.90;;;;;;6248918;23;20146;-81
2022/02/13 02:40:30;;;;;;;13.33;8.57;;;-1.20;99.90;;;;;;6223343;23;20150;-81
2022/02/13 02:42:56;;;;;;;9.93;8.37;;;-1.20;99.90;;;;;;6249333;23;20146;-82
2022/02/13 02:45:21;;;;;;;11.60;8.77;;;-1.20;99.90;;;;;;6224756;23;20154;-82
2022/02/13 02:47:47;;;;;;;9.37;8.13;;;-1.30;99.90;;;;;;6236592;23;20160;-81
2022/02/13 02:50:13;;;;;;;11.00;8.10;;;-1.30;99.90;;;;;;6255502;23;20161;-81
2022/02/13 02:52:39;;;;;;;12.37;8.13;;;-1.30;99.90;;;;;;6250178;23;20471;-81
2022/02/13 02:55:06;;;;;;;9.93;8.53;;;-1.30;99.90;;;;;;6223700;23;20156;-81
2022/02/13 02:57:31;;;;;;;12.27;7.73;;;-1.30;99.90;;;;;;6247877;23;20212;-83
2022/02/13 02:59:58;;;;;;;9.40;7.83;;;-1.20;99.90;;;;;;6220597;23;20157;-83
2022/02/13 03:02:24;;;;;;;10.67;8.67;;;-1.30;99.90;;;;;;6248401;23;20149;-82
2022/02/13 03:04:50;;;;;;;10.23;8.20;;;-1.40;99.90;;;;;;6247474;23;20233;-83
2022/02/13 03:07:16;;;;;;;11.63;8.67;;;-1.40;99.90;;;;;;6220928;23;20169;-81
2022/02/13 03:09:44;;;;;;;10.50;8.93;;;-1.40;99.90;;;;;;6222940;23;20156;-81
2022/02/13 03:12:10;;;;;;;10.27;9.00;;;-1.50;99.90;;;;;;6223478;23;20223;-81
2022/02/13 03:14:36;;;;;;;16.10;9.13;;;-1.60;99.90;;;;;;6250265;23;20141;-81
2022/02/13 03:17:06;;;;;;;9.93;8.93;;;-1.80;99.90;;;;;;6249993;22;20268;-82
2022/02/13 03:19:35;;;;;;;12.27;9.37;;;-1.90;99.90;;;;;;6250259;23;20149;-81
2022/02/13 03:22:01;;;;;;;13.67;9.93;;;-2.10;99.90;;;;;;6249260;23;20480;-81
2022/02/13 03:24:26;;;;;;;10.77;9.20;;;-2.20;99.90;;;;;;6249261;23;20158;-80
2022/02/13 03:26:52;;;;;;;13.10;9.53;;;-2.30;99.90;;;;;;6222466;23;20610;-81
2022/02/13 03:29:18;;;;;;;11.17;9.10;;;-2.20;99.90;;;;;;6249780;23;20472;-80
2022/02/13 03:31:44;;;;;;;12.50;9.20;;;-2.20;99.90;;;;;;6248791;23;20176;-81
2022/02/13 03:34:09;;;;;;;9.67;8.67;;;-2.20;99.90;;;;;;6248756;23;20149;-81
2022/02/13 03:36:35;;;;;;;9.87;8.80;;;-2.10;99.90;;;;;;6222098;23;20516;-81
2022/02/13 03:39:00;;;;;;;11.40;9.20;;;-2.00;99.90;;;;;;6249913;23;20148;-81
2022/02/13 03:41:26;;;;;;;9.87;8.30;;;-1.90;99.90;;;;;;6243646;23;20206;-81
2022/02/13 03:43:52;;;;;;;9.13;8.23;;;-1.90;99.90;;;;;;6220762;23;20164;-82
2022/02/13 03:46:17;;;;;;;11.20;8.73;;;-1.80;99.90;;;;;;6247553;23;20177;-80
2022/02/13 03:48:43;;;;;;;10.33;9.23;;;-1.80;99.90;;;;;;6247307;23;20586;-81
2022/02/13 03:51:12;;;;;;;9.50;8.53;;;-2.00;99.90;;;;;;6246298;23;20216;-80
2022/02/13 03:53:40;;;;;;;9.53;8.53;;;-2.00;99.90;;;;;;6247079;23;20495;-80
2022/02/13 03:56:06;;;;;;;11.17;8.47;;;-2.20;99.90;;;;;;6246943;23;20496;-81
2022/02/13 03:58:31;;;;;;;12.80;9.30;;;-2.20;99.90;;;;;;6247217;23;20196;-81
2022/02/13 04:00:59;;;;;;;9.60;8.43;;;-2.10;99.90;;;;;;6219863;23;20167;-80
2022/02/13 04:03:25;;;;;;;11.73;8.43;;;-2.10;99.90;;;;;;6220003;23;20159;-81
2022/02/13 04:05:54;;;;;;;12.40;9.53;;;-2.00;99.90;;;;;;6247329;23;20176;-80
2022/02/13 04:08:20;;;;;;;12.07;8.73;;;-2.10;99.90;;;;;;6247284;23;20217;-80
2022/02/13 04:10:46;;;;;;;11.13;8.70;;;-2.10;99.90;;;;;;6246830;23;20508;-82
2022/02/13 04:13:11;;;;;;;11.13;8.53;;;-2.30;99.90;;;;;;6247062;23;20143;-81
2022/02/13 04:15:37;;;;;;;10.20;8.70;;;-2.50;99.90;;;;;;6250640;22;20513;-81
2022/02/13 04:18:13;;;;;;;11.80;9.07;;;-2.60;99.90;;;;;;6248913;22;20160;-81
2022/02/13 04:20:40;;;;;;;11.50;9.07;;;-2.60;99.90;;;;;;6249000;23;20209;-80
2022/02/13 04:23:06;;;;;;;15.63;9.97;;;-2.50;99.90;;;;;;6222560;23;20153;-82
2022/02/13 04:25:32;;;;;;;9.47;8.47;;;-2.10;99.90;;;;;;6248593;23;20168;-80
2022/02/13 04:27:58;;;;;;;11.73;8.80;;;-2.30;99.90;;;;;;6222242;23;20160;-81
2022/02/13 04:30:24;;;;;;;11.00;8.50;;;-2.20;99.90;;;;;;6251580;23;20184;-80
2022/02/13 04:32:49;;;;;;;11.37;8.27;;;-2.10;99.90;;;;;;6250974;23;20171;-80
2022/02/13 04:35:15;;;;;;;18.13;8.67;;;-2.10;99.90;;;;;;6251223;23;20222;-80
2022/02/13 04:37:41;;;;;;;11.47;8.33;;;-2.20;99.90;;;;;;6251649;23;20602;-81
2022/02/13 04:40:07;;;;;;;10.67;8.80;;;-2.30;99.90;;;;;;6251360;23;20154;-81
2022/02/13 04:42:33;;;;;;;9.73;8.37;;;-2.40;99.90;;;;;;6250802;23;20144;-81
2022/02/13 04:44:59;;;;;;;10.87;9.17;;;-2.40;99.90;;;;;;6223883;23;20160;-81
2022/02/13 04:47:25;;;;;;;12.47;9.20;;;-2.30;99.90;;;;;;6223179;23;20172;-80
2022/02/13 04:49:50;;;;;;;10.97;8.97;;;-2.30;99.90;;;;;;6223685;23;20171;-81
2022/02/13 04:52:17;;;;;;;9.93;8.73;;;-2.30;99.90;;;;;;6223849;23;20149;-81
2022/02/13 04:54:42;;;;;;;11.10;8.63;;;-2.30;99.90;;;;;;6223892;23;20154;-81
2022/02/13 04:57:08;;;;;;;10.70;9.30;;;-2.20;99.90;;;;;;6250749;23;20499;-81
2022/02/13 04:59:37;;;;;;;11.97;8.77;;;-2.40;99.90;;;;;;6250610;23;20674;-81
2022/02/13 05:02:03;;;;;;;10.83;8.73;;;-2.40;99.90;;;;;;6249823;23;20192;-81
2022/02/13 05:04:30;;;;;;;11.23;8.83;;;-2.40;99.90;;;;;;6224068;23;20164;-80
2022/02/13 05:06:55;;;;;;;10.77;8.27;;;-2.50;99.90;;;;;;6250206;23;20603;-81
2022/02/13 05:09:21;;;;;;;11.27;9.03;;;-2.50;99.90;;;;;;6248757;23;20147;-82
2022/02/13 05:11:48;;;;;;;9.43;8.40;;;-2.60;99.90;;;;;;6248992;23;20510;-81
2022/02/13 05:14:14;;;;;;;9.43;8.47;;;-2.60;99.90;;;;;;6250314;23;20491;-81
2022/02/13 05:16:40;;;;;;;15.30;8.57;;;-2.70;99.90;;;;;;6234212;22;20191;-81
2022/02/13 05:19:05;;;;;;;11.60;8.87;;;-2.80;99.90;;;;;;6281366;22;20154;-82
2022/02/13 05:21:31;;;;;;;10.40;7.80;;;-2.80;99.90;;;;;;6281069;22;20623;-82
2022/02/13 05:23:57;;;;;;;10.70;8.30;;;-2.80;99.90;;;;;;6252923;22;20500;-81
2022/02/13 05:26:22;;;;;;;9.20;8.30;;;-2.90;99.90;;;;;;6279734;22;20202;-81
2022/02/13 05:28:48;;;;;;;12.03;9.30;;;-3.00;99.90;;;;;;6281627;22;20150;-81
2022/02/13 05:31:13;;;;;;;9.37;7.97;;;-3.10;99.90;;;;;;6253611;22;20185;-81
2022/02/13 05:33:39;;;;;;;10.20;8.10;;;-3.00;99.90;;;;;;6253925;22;20146;-81
2022/02/13 05:36:05;;;;;;;11.20;8.77;;;-2.90;99.90;;;;;;6254144;22;20174;-81
2022/02/13 05:38:30;;;;;;;11.53;9.30;;;-2.80;99.90;;;;;;6281370;22;20226;-81
2022/02/13 05:40:56;;;;;;;10.70;9.30;;;-2.60;99.90;;;;;;6254485;22;20182;-80
2022/02/13 05:43:22;;;;;;;12.23;9.10;;;-2.50;99.90;;;;;;6253457;22;20163;-81
2022/02/13 05:45:47;;;;;;;11.73;9.97;;;-2.50;99.90;;;;;;6253947;22;20182;-82
2022/02/13 05:48:13;;;;;;;11.10;9.13;;;-2.30;99.90;;;;;;6281682;22;20555;-81
2022/02/13 05:50:41;;;;;;;11.67;9.30;;;-2.50;99.90;;;;;;6254408;22;20201;-80
2022/02/13 05:53:07;;;;;;;11.50;9.43;;;-2.60;99.90;;;;;;6280930;22;20242;-81
2022/02/13 05:55:33;;;;;;;11.03;9.20;;;-2.70;99.90;;;;;;6281469;22;20175;-81
2022/02/13 05:57:59;;;;;;;10.60;8.57;;;-2.70;99.90;;;;;;6281494;22;20148;-81
2022/02/13 06:00:25;;;;;;;11.73;8.83;;;-2.70;99.90;;;;;;6253517;22;20266;-79
2022/02/13 06:02:51;;;;;;;12.67;9.40;;;-2.80;99.90;;;;;;6281520;22;20147;-81
2022/02/13 06:05:17;;;;;;;11.63;10.33;;;-2.70;99.90;;;;;;6280737;22;20224;-81
2022/02/13 06:07:43;;;;;;;10.97;9.43;;;-2.60;99.90;;;;;;6253517;22;20238;-81
2022/02/13 06:10:11;;;;;;;9.50;8.50;;;-2.70;99.90;;;;;;6280354;22;20168;-80
2022/02/13 06:12:37;;;;;;;11.20;9.20;;;-2.80;99.90;;;;;;6280598;22;20141;-80
2022/02/13 06:15:04;;;;;;;11.57;8.60;;;-2.80;99.90;;;;;;6253901;22;20149;-81
2022/02/13 06:17:30;;;;;;;9.23;8.20;;;-2.70;99.90;;;;;;6258915;22;20530;-80
2022/02/13 06:19:56;;;;;;;9.83;8.80;;;-2.80;99.90;;;;;;6250233;23;20167;-81
2022/02/13 06:22:22;;;;;;;9.73;8.57;;;-2.80;99.90;;;;;;6250219;23;20148;-80
2022/02/13 06:24:47;;;;;;;10.03;8.13;;;-2.90;99.90;;;;;;6250671;23;20150;-81
2022/02/13 06:27:13;;;;;;;11.50;8.83;;;-3.00;99.90;;;;;;6223345;23;20488;-80
2022/02/13 06:29:39;;;;;;;10.43;8.33;;;-2.90;99.90;;;;;;6249044;23;20616;-81
2022/02/13 06:32:05;;;;;;;10.57;8.20;;;-2.90;99.90;;;;;;6221701;23;20174;-82
2022/02/13 06:34:31;;;;;;;10.00;8.17;;;-2.80;99.90;;;;;;6230973;23;20152;-81
2022/02/13 06:36:56;;;;;;;11.07;9.10;;;-2.80;99.90;;;;;;6253386;23;20176;-82
2022/02/13 06:39:22;;;;;;;15.57;11.53;;;-2.80;99.90;;;;;;6250364;23;20468;-81
2022/02/13 06:41:47;;;;;;;13.30;11.10;;;-2.80;99.90;;;;;;6222997;23;20213;-81
2022/02/13 06:44:13;;;;;;;11.93;10.17;;;-2.70;99.90;;;;;;6249814;23;20647;-84
2022/02/13 06:46:40;;;;;;;10.80;9.23;;;-2.60;99.90;;;;;;6249961;23;20165;-82
2022/02/13 06:49:09;;;;;;;13.67;10.93;;;-2.60;99.90;;;;;;6222663;23;20159;-81
2022/02/13 06:51:34;;;;;;;15.07;11.47;;;-2.50;99.90;;;;;;6248955;23;20176;-81
2022/02/13 06:54:00;;;;;;;13.33;11.40;;;-2.50;99.90;;;;;;6249335;23;20224;-81
2022/02/13 06:56:25;;;;;;;14.57;10.90;;;-2.50;99.90;;;;;;6222441;23;20166;-81
2022/02/13 06:58:51;;;;;;;13.87;11.40;;;-2.50;99.90;;;;;;6221895;23;20597;-81
2022/02/13 07:01:17;;;;;;;16.03;10.80;;;-2.50;99.90;;;;;;6249078;23;20201;-81
2022/02/13 07:03:43;;;;;;;12.93;10.63;;;-2.50;99.90;;;;;;6221682;23;20156;-81
2022/02/13 07:06:08;;;;;;;12.17;10.87;;;-2.50;99.90;;;;;;6221568;23;20238;-81
2022/02/13 07:08:34;;;;;;;14.90;10.17;;;-2.50;99.90;;;;;;6221528;23;20160;-81
2022/02/13 07:11:00;;;;;;;13.37;10.30;;;-2.40;99.90;;;;;;6248723;23;20169;-82
2022/02/13 07:13:26;;;;;;;12.43;10.63;;;-2.40;99.90;;;;;;6248203;23;20149;-81
2022/02/13 07:15:52;;;;;;;14.00;10.87;;;-2.40;99.90;;;;;;6247922;22;20166;-81
2022/02/13 07:18:17;;;;;;;13.40;10.23;;;-2.40;99.90;;;;;;6221464;23;20155;-81
2022/02/13 07:20:43;;;;;;;14.03;10.33;;;-2.40;99.90;;;;;;6248053;23;20151;-81
2022/02/13 07:23:09;;;;;;;12.63;10.30;;;-2.40;99.90;;;;;;6221773;23;20163;-81
2022/02/13 07:25:34;;;;;;;13.10;10.20;;;-2.30;99.90;;;;;;6221893;23;20264;-81
2022/02/13 07:28:58;;;;;;;14.93;10.73;;;-2.30;99.90;;;;;;6248196;23;20147;-82
2022/02/13 07:30:46;;;;;;;15.77;12.57;;;-2.00;99.90;;;;;;6250653;23;20270;-80
2022/02/13 07:33:12;;;;;;;19.47;12.97;;;-2.20;99.90;;;;;;6221814;23;20152;-81
2022/02/13 07:35:40;;;;;;;16.10;12.83;;;-2.20;99.90;;;;;;6248486;23;20202;-81
2022/02/13 07:38:06;;;;;;;16.43;12.27;;;-2.20;99.90;;;;;;6221647;23;20178;-81
2022/02/13 07:40:32;;;;;;;15.00;11.80;;;-2.10;99.90;;;;;;6219394;23;20156;-81
2022/02/13 07:42:58;;;;;;;16.97;11.27;;;-2.10;99.90;;;;;;6246286;23;20156;-81
2022/02/13 07:45:23;;;;;;;14.47;12.20;;;-2.10;99.90;;;;;;6248008;23;20163;-80
2022/02/13 07:47:49;;;;;;;13.97;11.50;;;-2.00;99.90;;;;;;6221087;23;20163;-81
2022/02/13 07:50:15;;;;;;;13.87;12.37;;;-2.00;99.90;;;;;;6228192;23;20181;-82
2022/02/13 07:52:41;;;;;;;13.20;11.07;;;-1.90;99.90;;;;;;6250923;23;20651;-81
2022/02/13 07:55:07;;;;;;;16.77;11.70;;;-1.80;99.90;;;;;;6251534;23;20149;-81
2022/02/13 07:57:32;;;;;;;14.60;11.53;;;-1.80;99.90;;;;;;6199391;23;20180;-81
2022/02/13 07:59:58;;;;;;;15.03;11.20;;;-1.80;99.90;;;;;;6251056;23;20151;-81
2022/02/13 08:02:23;;;;;;;15.33;11.27;;;-1.70;99.90;;;;;;6250697;23;20652;-82
2022/02/13 08:04:50;;;;;;;13.43;10.77;;;-1.60;99.90;;;;;;6251172;23;20708;-81
2022/02/13 08:07:16;;;;;;;12.77;11.57;;;-1.50;99.90;;;;;;6223891;23;20219;-82
2022/02/13 08:09:42;;;;;;;16.70;11.97;;;-1.50;99.90;;;;;;6251640;23;20486;-83
2022/02/13 08:12:09;;;;;;;16.50;13.30;;;-1.40;99.90;;;;;;6197703;23;20183;-82
2022/02/13 08:14:35;;;;;;;17.27;13.00;;;-1.40;99.90;;;;;;6251481;23;20224;-81
2022/02/13 08:17:01;;;;;;;15.37;12.40;;;-1.30;99.90;;;;;;6238231;22;20271;-81
2022/02/13 08:19:26;;;;;;;16.07;13.23;;;-1.30;99.90;;;;;;6281937;22;20148;-81
2022/02/13 08:21:52;;;;;;;16.57;12.57;;;-1.20;99.90;;;;;;6254153;22;20171;-81
2022/02/13 08:24:19;;;;;;;15.63;12.20;;;-1.20;99.90;;;;;;6252144;22;20198;-81
2022/02/13 08:26:45;;;;;;;18.10;13.27;;;-1.10;99.90;;;;;;6279226;22;20176;-82
2022/02/13 08:29:10;;;;;;;15.83;12.53;;;-1.10;99.90;;;;;;6254518;22;20474;-81
2022/02/13 08:31:36;;;;;;;16.43;13.53;;;-1.00;99.90;;;;;;6253622;22;20181;-81
2022/02/13 08:34:01;;;;;;;15.60;13.20;;;-0.90;99.90;;;;;;6253064;22;20144;-81
2022/02/13 08:36:27;;;;;;;18.77;12.63;;;-0.90;99.90;;;;;;6253517;22;20179;-80
2022/02/13 08:38:53;;;;;;;16.20;13.60;;;-0.70;99.90;;;;;;6254612;22;20293;-80
2022/02/13 08:41:18;;;;;;;17.67;13.93;;;-0.60;99.90;;;;;;6280041;22;20472;-82
2022/02/13 08:43:44;;;;;;;22.20;16.03;;;-0.50;99.90;;;;;;6279624;22;20648;-81
2022/02/13 08:46:10;;;;;;;20.17;14.83;;;-0.10;99.90;;;;;;6254162;22;20681;-82
2022/02/13 08:48:36;;;;;;;22.63;16.33;;;-0.40;99.90;;;;;;6254529;22;20186;-82
2022/02/13 08:51:01;;;;;;;20.53;14.57;;;-0.40;99.90;;;;;;6253801;22;20296;-82
2022/02/13 08:53:27;;;;;;;19.60;15.03;;;-0.20;99.90;;;;;;6281678;22;20152;-81
2022/02/13 08:55:53;;;;;;;21.63;14.53;;;-0.10;99.90;;;;;;6252774;22;20251;-82
2022/02/13 08:58:18;;;;;;;17.40;14.73;;;-0.10;99.90;;;;;;6279937;22;20144;-84
2022/02/13 09:00:44;;;;;;;17.60;14.37;;;0.00;99.90;;;;;;6279463;22;20157;-81
2022/02/13 09:03:12;;;;;;;20.23;14.67;;;0.10;99.90;;;;;;6280228;22;20152;-81
2022/02/13 09:05:41;;;;;;;26.87;15.97;;;0.10;99.90;;;;;;6278224;22;20172;-83
2022/02/13 09:08:08;;;;;;;20.63;14.07;;;0.30;99.90;;;;;;6278667;22;20160;-82
2022/02/13 09:10:34;;;;;;;16.07;13.60;;;0.40;99.90;;;;;;6251948;22;20495;-81
2022/02/13 09:13:00;;;;;;;17.37;13.97;;;0.40;99.90;;;;;;6280655;22;20227;-81
2022/02/13 09:15:28;;;;;;;15.43;13.77;;;0.50;99.90;;;;;;6253274;22;20594;-80
2022/02/13 09:17:53;;;;;;;18.87;14.43;;;0.60;99.90;;;;;;6254427;22;20172;-81
2022/02/13 09:20:19;;;;;;;18.23;14.30;;;0.70;99.90;;;;;;6252616;23;20149;-80
2022/02/13 09:22:45;;;;;;;17.87;14.47;;;0.80;99.90;;;;;;6249770;23;20159;-81
2022/02/13 09:25:10;;;;;;;19.70;14.17;;;0.80;99.90;;;;;;6223812;23;20161;-82
2022/02/13 09:27:36;;;;;;;16.57;14.20;;;0.90;99.90;;;;;;6249784;23;20153;-80
2022/02/13 09:30:03;;;;;;;17.87;14.70;;;1.00;99.90;;;;;;6249984;23;20156;-81
2022/02/13 09:32:29;;;;;;;16.37;14.07;;;1.10;99.90;;;;;;6250125;23;20149;-81
2022/02/13 09:34:54;;;;;;;24.20;14.23;;;1.30;99.90;;;;;;6249492;23;20149;-81
2022/02/13 09:37:20;;;;;;;16.70;13.57;;;1.40;99.90;;;;;;6248674;23;20171;-81
2022/02/13 09:39:47;;;;;;;15.40;13.47;;;1.50;99.90;;;;;;6249525;23;20582;-81
2022/02/13 09:42:13;;;;;;;16.07;13.40;;;1.40;99.90;;;;;;6249231;23;20459;-81
2022/02/13 09:44:39;;;;;;;15.23;12.90;;;1.70;99.90;;;;;;6249342;23;20153;-81
2022/02/13 09:47:06;;;;;;;16.33;13.13;;;1.80;99.90;;;;;;6249363;23;20175;-81
2022/02/13 09:49:32;;;;;;;14.10;12.23;;;1.90;99.90;;;;;;6248426;23;20175;-81
2022/02/13 09:51:58;;;;;;;15.27;13.10;;;2.10;99.90;;;;;;6248993;23;20514;-82
2022/02/13 09:54:24;;;;;;;14.77;12.50;;;2.10;99.90;;;;;;6249526;23;20141;-82
2022/02/13 09:56:50;;;;;;;11.47;10.30;;;2.10;99.90;;;;;;6222323;23;20175;-81
2022/02/13 09:59:16;;;;;;;11.90;10.70;;;2.00;99.90;;;;;;6249887;23;20232;-81
2022/02/13 10:01:47;;;;;;;11.63;10.43;;;2.20;99.90;;;;;;6249250;23;20176;-82
2022/02/13 10:04:13;;;;;;;11.10;9.97;;;2.80;99.90;;;;;;6249428;23;20891;-81
2022/02/13 10:06:40;;;;;;;11.87;10.67;;;2.90;99.90;;;;;;6249559;23;20608;-82
2022/02/13 10:09:09;;;;;;;13.03;10.60;;;3.00;99.90;;;;;;6221734;23;20162;-81
2022/02/13 10:11:37;;;;;;;12.67;11.23;;;3.20;99.90;;;;;;6220867;23;20204;-80
2022/02/13 10:14:15;;;;;;;15.80;11.47;;;3.20;99.90;;;;;;6248265;23;20152;-81
2022/02/13 10:16:51;;;;;;;13.20;11.20;;;3.00;99.90;;;;;;6249573;22;20173;-80
2022/02/13 10:19:26;;;;;;;15.30;10.87;;;3.00;99.90;;;;;;6248485;23;20138;-81
2022/02/13 10:21:56;;;;;;;17.47;12.07;;;3.00;99.90;;;;;;6248472;23;20163;-82
2022/02/13 10:24:29;;;;;;;16.30;11.90;;;3.10;99.90;;;;;;6222082;23;20146;-82
2022/02/13 10:27:15;;;;;;;12.23;11.00;;;3.20;99.90;;;;;;6221515;23;20231;-84
2022/02/13 10:29:43;;;;;;;17.63;12.80;;;3.30;99.90;;;;;;6248558;23;20146;-82
2022/02/13 10:32:25;;;;;;;13.77;11.83;;;3.70;99.90;;;;;;6248586;23;20186;-82
2022/02/13 10:35:12;;;;;;;12.37;10.93;;;3.60;99.90;;;;;;6221787;23;20150;-82
2022/02/13 10:37:58;;;;;;;15.60;11.33;;;3.70;99.90;;;;;;6248236;23;20147;-81
2022/02/13 10:40:29;;;;;;;11.30;10.20;;;3.90;99.90;;;;;;6249105;23;20146;-82
2022/02/13 10:43:04;;;;;;;11.47;10.27;;;3.80;99.90;;;;;;6249433;23;20581;-80
2022/02/13 10:45:32;;;;;;;12.03;10.30;;;4.00;99.90;;;;;;6247190;23;20171;-83
2022/02/13 10:47:59;;;;;;;14.37;11.63;;;;;;;;;;6246732;23;20155;-82
2022/02/13 10:50:25;;;;;;;11.33;9.30;;;;;;;;;;6249557;23;20175;-81
2022/02/13 10:52:52;;;;;;;10.73;9.60;;;;;;;;;;6222115;23;20158;-82
2022/02/13 10:55:18;;;;;;;10.67;9.57;;;;;;;;;;6248988;23;20148;-82
2022/02/13 10:57:45;;;;;;;11.40;8.73;;;;;;;;;;6249349;23;20144;-82
2022/02/13 11:00:12;;;;;;;10.03;9.13;;;;;;;;;;6222193;23;20149;-82
2022/02/13 11:02:39;;;;;;;7.87;7.07;;;;;;;;;;6249380;23;20150;-82
2022/02/13 11:05:06;;;;;;;7.47;6.50;;;;;;;;;;6249150;23;20144;-81
2022/02/13 11:07:32;;;;;;;7.33;6.73;;;;;;;;;;6246656;23;20637;-80
2022/02/13 11:09:59;;;;;;;7.43;6.07;;;;;;;;;;6221126;23;20598;-82
2022/02/13 11:12:25;;;;;;;7.20;6.33;;;;;;;;;;6246736;23;20239;-83
2022/02/13 11:14:51;;;;;;;7.10;6.50;;;;;;;;;;6220273;23;20149;-83
2022/02/13 11:17:30;;;;;;;8.07;6.70;;;;;;;;;;6239146;22;20188;-82
2022/02/13 11:19:57;;;;;;;6.97;6.33;;;;;;;;;;6277340;22;20172;-83
2022/02/13 11:22:36;;;;;;;6.83;6.17;;;;;;;;;;6250831;22;20157;-82
2022/02/13 11:25:03;;;;;;;7.53;6.07;;;;;;;;;;6250882;22;20479;-83
2022/02/13 11:27:49;;;;;;;8.60;5.53;;;;;;;;;;6277175;22;20228;-82
2022/02/13 11:30:35;;;;;;;6.97;5.93;;;;;;;;;;6249210;22;21047;-82
2022/02/13 11:33:01;;;;;;;6.60;6.00;;;;;;;;;;6250284;22;20148;-84
2022/02/13 11:35:47;;;;;;;6.53;5.87;;;;;;;;;;6278216;22;20160;-83
2022/02/13 11:38:13;;;;;;;5.83;5.33;;;;;;;;;;6247287;22;20153;-83
2022/02/13 11:40:42;;;;;;;4.67;4.27;;;;;;;;;;6275623;22;20152;-84
2022/02/13 11:43:08;;;;;;;4.17;3.77;;;;;;;;;;6250220;22;20163;-84
2022/02/13 11:45:41;;;;;;;3.70;3.37;;;;;;;;;;6249847;22;20256;-84
2022/02/13 11:48:26;;;;;;;4.20;3.70;;;;;;;;;;6277425;22;20632;-83
2022/02/13 11:50:54;;;;;;;4.20;3.80;;;;;;;;;;6250406;22;20187;-84
2022/02/13 11:53:26;;;;;;;4.70;3.20;;;;;;;;;;6252232;22;20171;-84
2022/02/13 11:55:52;;;;;;;3.00;2.70;;;;;;;;;;6279301;22;20229;-83
2022/02/13 11:58:18;;;;;;;3.63;3.30;;;;;;;;;;6252104;22;20682;-83
2022/02/13 12:00:44;;;;;;;4.10;2.43;;;;;;;;;;6253346;22;20183;-84
2022/02/13 12:03:12;;;;;;;3.57;3.27;;;;;;;;;;6280215;22;20194;-85
2022/02/13 12:05:38;;;;;;;3.10;2.90;;;;;;;;;;6253160;22;20302;-83
2022/02/13 12:08:04;;;;;;;3.80;3.10;;;;;;;;;;6280156;22;20175;-84
2022/02/13 12:10:42;;;;;;;3.57;3.07;;;;;;;;;;6252806;22;20260;-84
2022/02/13 12:13:11;;;;;;;3.23;2.93;;;;;;;;;;6254438;22;20178;-84
2022/02/13 12:15:38;;;;;;;4.20;3.20;;;;;;;;;;6253504;22;20247;-84
2022/02/13 12:18:11;;;;;;;4.23;2.83;;;;;;;;;;6251957;22;20167;-83
2022/02/13 12:20:38;;;;;;;3.43;2.57;;;;;;;;;;6279455;22;20221;-85
2022/02/13 12:23:15;;;;;;;4.73;3.40;;;;;;;;;;6278729;22;20148;-85
2022/02/13 12:25:43;;;;;;;3.30;3.00;;;;;;;;;;6279533;22;20613;-84
2022/02/13 12:28:10;;;;;;;3.30;3.00;;;;;;;;;;6279362;22;20151;-84
2022/02/13 12:30:37;;;;;;;3.60;3.30;;;;;;;;;;6278953;22;20203;-84
2022/02/13 12:33:04;;;;;;;4.50;3.20;;;;;;;;;;6279357;22;20319;-84
2022/02/13 12:35:31;;;;;;;4.63;3.00;;;;;;;;;;6278603;22;20141;-84
2022/02/13 12:37:58;;;;;;;3.27;2.97;;;;;;;;;;6252082;22;20153;-85
2022/02/13 12:40:28;;;;;;;3.57;3.27;;;;;;;;;;6280084;22;20141;-84
2022/02/13 12:42:56;;;;;;;3.27;3.00;;;;;;;;;;6280493;22;20171;-84
2022/02/13 12:45:23;;;;;;;4.13;3.33;;;;;;;;;;6253209;22;20216;-85
2022/02/13 12:48:00;;;;;;;4.00;3.60;;;;;;;;;;6281498;22;20153;-85
2022/02/13 12:50:46;;;;;;;6.90;3.97;;;;;;;;;;6281665;22;20147;-81
2022/02/13 12:53:17;;;;;;;5.30;3.53;;;;;;;;;;6280562;22;20172;-85